Greater Rochester International Airport
KROC : now visible

Airfield :











YOU CAN JOIN US ON...

 
LOGIN :

Register | Disclaimer

   EN    FR    IT 

 









Legend :    VFR   Marginal VFR   IFR   Intensive IFR   Very Intensive IFR
Visi :
Ceiling :
>= 8 km
>= 3000ft
5 to 8 km
1000 to 3000 ft
1500m to 5 km
500 to 1000 ft
800 to 1500m
200 to 500 ft
< 800m
< 200 ft
Symbols :   Thunderstorms  Fog  Heavy snow  Heavy precipitations  Wind > 20 kt






- Airport Elevation : 559 ft
- IATA code : ROC


KROC - Greater Rochester International

CURRENT METAR :
  • 071554Z 02008KT 10SM FEW030 OVC070 08/03 A2996 RMK AO2 SLP150 T00830028 $

EXPIRED METARs :
  • 071454Z 36007KT 10SM SCT065 BKN090 OVC150 08/04 A2996 RMK AO2 SLP153 60000 T00830039 58001 $
  • 071354Z 02011KT 10SM FEW030 SCT060 OVC090 07/04 A2997 RMK AO2 RAE26 SLP155 P0000 T00720039 $

TAF KROC
Valid from the 07 at 15:00 until the 08 at 12:00 UTC


071507Z 0715/0812 36007KT P6SM -RA BKN070 OVC110
FM071600 01008KT P6SM -SHRA OVC040
FM071900 36008KT 5SM -RA BR OVC015
FM080200 35005KT 6SM -SHRA BR OVC007
FM080800 28005KT P6SM BKN015
KZOB FIR / North America



MET'MAP, your aeronautical weather chart ! - Copyright ORBIFLY December 2007 - Disclaimer

ORBIFLY MET'MAP TEAM :

Programming & Development : Alexandra Zaïnal
Concept & original design : Baudouin d'Aumeries
Assistance for programming : Marc-Olivier Méhu
Technical & hardware support : Manuel Goepfert

Contact : metmap@orbifly.com




SOURCES & CREDITS :

   NOAA       Earth
Advisory